Time;durP1;ratioP1;P1;durP2;ratioP2;P2;SDS_P1;SDS_P2;PMS_P1;PMS_P2;Temp;Humidity;BMP_temperature;BMP_pressure;BME280_temperature;BME280_humidity;BME280_pressure;Samples;Min_cycle;Max_cycle;Signal;HPM_P1;HPM_P2
2021/12/23 00:04:09;;;;;;;7.97;6.50;;;;;;;20.31;nan;101462.06;20385641;28;107289;-58
2021/12/23 00:14:10;;;;;;;9.60;6.67;;;;;;;20.28;nan;101456.94;20407237;28;98979;-56
2021/12/23 00:24:13;;;;;;;10.07;7.10;;;;;;;20.23;nan;101435.34;20386737;28;102157;-58
2021/12/23 00:34:14;;;;;;;9.80;5.90;;;;;;;20.19;nan;101435.59;20382079;28;101513;-56
2021/12/23 00:44:15;;;;;;;10.50;6.93;;;;;;;20.17;nan;101434.84;20387039;28;103131;-58
2021/12/23 00:54:16;;;;;;;11.07;6.47;;;;;;;20.11;nan;101433.41;20410433;28;102939;-58
2021/12/23 01:04:16;;;;;;;8.70;6.65;;;;;;;20.09;nan;101428.25;20388170;28;103600;-57
2021/12/23 01:24:17;;;;;;;9.50;6.97;;;;;;;20.00;nan;101415.59;20385791;28;101036;-59
2021/12/23 01:34:18;;;;;;;9.18;6.30;;;;;;;19.97;nan;101402.63;20430786;28;102893;-55
2021/12/23 01:44:19;;;;;;;9.77;6.88;;;;;;;19.96;nan;101398.31;20385138;28;102859;-58
2021/12/23 01:54:19;;;;;;;8.88;6.57;;;;;;;19.92;nan;101388.88;20380665;28;99218;-57
2021/12/23 02:04:20;;;;;;;9.75;6.60;;;;;;;19.87;nan;101370.72;20385270;28;99649;-58
2021/12/23 02:14:22;;;;;;;8.50;6.60;;;;;;;19.88;nan;101367.19;20384870;28;100321;-58
2021/12/23 02:24:24;;;;;;;8.95;6.20;;;;;;;19.87;nan;101376.00;20402799;28;104953;-58
2021/12/23 02:34:27;;;;;;;8.43;6.40;;;;;;;19.87;nan;101354.13;20376457;28;99976;-58
2021/12/23 02:44:29;;;;;;;;;;;;;;;19.91;nan;101338.09;20416486;28;101666;-57
2021/12/23 02:54:35;;;;;;;8.75;6.50;;;;;;;19.86;nan;101331.41;20402619;28;99816;-58
2021/12/23 03:04:36;;;;;;;9.07;6.15;;;;;;;19.84;nan;101323.63;20394556;28;102437;-58
2021/12/23 03:14:37;;;;;;;7.53;6.03;;;;;;;19.79;nan;101312.50;20394269;28;100969;-58
2021/12/23 03:24:39;;;;;;;7.55;5.97;;;;;;;19.79;nan;101309.88;20394621;28;105095;-57
2021/12/23 03:34:42;;;;;;;9.87;6.30;;;;;;;19.81;nan;101302.72;20390252;28;99356;-58
2021/12/23 03:44:42;;;;;;;7.93;5.87;;;;;;;19.77;nan;101288.91;20424379;28;105063;-58
2021/12/23 03:54:43;;;;;;;8.45;6.25;;;;;;;19.77;nan;101288.91;20390558;28;102695;-58
2021/12/23 04:04:44;;;;;;;6.88;5.60;;;;;;;19.77;nan;101296.78;20382556;28;100580;-58
2021/12/23 04:14:45;;;;;;;7.50;6.00;;;;;;;19.77;nan;101295.97;20418875;28;97798;-57
2021/12/23 04:24:46;;;;;;;7.97;6.30;;;;;;;19.72;nan;101275.19;20381925;28;98944;-57
2021/12/23 04:34:47;;;;;;;8.43;6.50;;;;;;;19.73;nan;101266.38;20383656;28;104909;-57
2021/12/23 04:44:48;;;;;;;8.40;6.13;;;;;;;19.71;nan;101256.88;20381026;28;110174;-58
2021/12/23 04:54:49;;;;;;;10.07;6.70;;;;;;;19.71;nan;101255.09;20388844;28;102992;-57
2021/12/23 05:04:50;;;;;;;10.50;6.88;;;;;;;19.70;nan;101247.31;20380298;28;104172;-57
2021/12/23 05:14:51;;;;;;;9.93;6.47;;;;;;;19.77;nan;101262.63;20404536;28;97788;-59
2021/12/23 05:24:52;;;;;;;13.05;7.00;;;;;;;19.92;nan;101250.44;20440172;28;101774;-57
2021/12/23 05:34:52;;;;;;;11.80;6.60;;;;;;;20.10;nan;101240.63;20412602;28;102714;-58
2021/12/23 05:44:54;;;;;;;17.45;7.47;;;;;;;20.19;nan;101252.38;20450752;28;102995;-61
2021/12/23 05:54:57;;;;;;;14.20;6.80;;;;;;;20.26;nan;101266.84;20430774;28;106089;-57
2021/12/23 06:04:58;;;;;;;10.50;7.20;;;;;;;20.31;nan;101254.25;20421703;28;99229;-58
2021/12/23 06:14:58;;;;;;;15.45;8.50;;;;;;;20.24;nan;101225.81;20410396;28;102466;-60
2021/12/23 06:25:00;;;;;;;14.40;7.68;;;;;;;20.34;nan;101236.63;20410307;28;99177;-57
2021/12/23 06:35:00;;;;;;;15.68;7.13;;;;;;;20.40;nan;101233.63;20418133;28;99030;-57
2021/12/23 06:45:01;;;;;;;8.77;6.53;;;;;;;20.45;nan;101234.19;20422124;28;101350;-57
2021/12/23 06:55:03;;;;;;;12.60;7.95;;;;;;;20.49;nan;101238.28;20441009;28;99581;-57
2021/12/23 07:05:07;;;;;;;10.77;6.95;;;;;;;20.54;nan;101238.84;20410748;28;102397;-58
2021/12/23 07:15:08;;;;;;;18.88;10.52;;;;;;;20.57;nan;101233.41;20437991;28;100292;-57
2021/12/23 07:25:12;;;;;;;11.85;7.63;;;;;;;20.65;nan;101222.41;20417865;28;100701;-57
2021/12/23 07:35:15;;;;;;;12.35;8.40;;;;;;;20.72;nan;101218.50;20438844;28;102594;-59
2021/12/23 07:45:16;;;;;;;13.60;7.95;;;;;;;20.76;nan;101224.41;20444408;28;98251;-60
2021/12/23 07:55:17;;;;;;;17.13;9.85;;;;;;;20.83;nan;101199.41;20418859;28;101732;-57
2021/12/23 08:05:19;;;;;;;16.25;8.93;;;;;;;20.95;nan;101187.25;20421907;28;99646;-58
2021/12/23 08:15:21;;;;;;;12.93;8.97;;;;;;;20.99;nan;101175.56;20446925;28;102963;-57
2021/12/23 08:25:23;;;;;;;17.77;9.75;;;;;;;21.02;nan;101178.03;20403410;28;102396;-59
2021/12/23 08:35:23;;;;;;;17.98;8.52;;;;;;;21.07;nan;101172.47;20405646;28;101440;-59
2021/12/23 08:45:27;;;;;;;12.05;8.15;;;;;;;21.13;nan;101176.47;20430205;28;100207;-57
2021/12/23 08:55:31;;;;;;;14.32;7.65;;;;;;;21.17;nan;101170.09;20404230;28;101628;-59
2021/12/23 09:05:33;;;;;;;18.45;6.97;;;;;;;21.20;nan;101164.59;20399399;28;99147;-60
2021/12/23 09:15:34;;;;;;;15.97;7.83;;;;;;;20.80;nan;101157.50;20408029;28;98520;-58
2021/12/23 09:25:36;;;;;;;15.30;7.82;;;;;;;20.71;nan;101119.38;20395766;28;104062;-59
2021/12/23 09:35:40;;;;;;;12.30;6.55;;;;;;;20.78;nan;101104.09;20394031;28;104344;-57
2021/12/23 09:45:43;;;;;;;12.07;6.00;;;;;;;20.90;nan;101090.13;20428090;28;98499;-59
2021/12/23 09:55:44;;;;;;;12.65;6.13;;;;;;;21.02;nan;101082.38;20423023;28;99433;-58
2021/12/23 10:05:46;;;;;;;12.18;5.30;;;;;;;21.26;nan;101087.81;20405371;28;99942;-60
2021/12/23 10:46:50;;;;;;;9.00;4.75;;;;;;;21.88;nan;100989.59;20393371;28;101849;-61
2021/12/23 11:07:20;;;;;;;12.43;5.03;;;;;;;21.93;nan;100946.25;20405285;28;100644;-61
2021/12/23 11:48:40;;;;;;;34.33;18.50;;;;;;;22.06;nan;100850.31;20436346;28;101871;-61
2021/12/23 11:58:43;;;;;;;28.50;14.70;;;;;;;22.15;nan;100835.59;20431797;28;97764;-60
2021/12/23 12:08:46;;;;;;;24.95;13.23;;;;;;;22.06;nan;100817.84;20413504;28;101373;-59
2021/12/23 12:18:47;;;;;;;;;;;;;;;22.05;nan;100818.78;20415141;28;97915;-60
2021/12/23 12:28:48;;;;;;;16.50;9.43;;;;;;;21.99;nan;100800.78;20453226;28;100492;-60
2021/12/23 12:38:55;;;;;;;15.85;8.10;;;;;;;21.96;nan;100774.63;20424708;28;97965;-60
2021/12/23 12:48:55;;;;;;;11.93;6.93;;;;;;;21.93;nan;100783.63;20424782;28;99221;-60
2021/12/23 12:58:58;;;;;;;10.15;6.30;;;;;;;21.90;nan;100768.03;20407288;28;98007;-59
2021/12/23 13:09:04;;;;;;;11.05;5.53;;;;;;;21.87;nan;100765.63;20423421;28;100257;-60
2021/12/23 13:19:18;;;;;;;9.63;4.65;;;;;;;21.83;nan;100738.63;20427861;28;101445;-60
2021/12/23 13:29:21;;;;;;;9.52;5.07;;;;;;;21.80;nan;100725.72;20414864;28;98946;-61
2021/12/23 13:39:28;;;;;;;9.73;4.68;;;;;;;21.76;nan;100708.41;20407471;28;97909;-61
2021/12/23 13:49:41;;;;;;;13.35;4.75;;;;;;;21.78;nan;100700.41;20398010;28;100036;-60
2021/12/23 13:59:43;;;;;;;8.50;3.90;;;;;;;21.78;nan;100680.16;20397232;28;101578;-61
2021/12/23 14:09:47;;;;;;;11.77;4.00;;;;;;;21.75;nan;100678.59;20403151;28;100938;-60
2021/12/23 14:23:11;;;;;;;8.43;4.07;;;;;;;21.78;nan;100677.53;20423122;28;102119;-62
2021/12/23 14:30:38;;;;;;;7.95;4.03;;;;;;;21.80;nan;100649.25;20406505;28;98959;-60
2021/12/23 14:40:40;;;;;;;7.05;3.83;;;;;;;21.68;nan;100623.81;20415852;28;101335;-59
2021/12/23 14:50:51;;;;;;;9.00;3.20;;;;;;;21.68;nan;100637.00;20436257;28;98544;-60
2021/12/23 15:00:53;;;;;;;8.57;3.10;;;;;;;21.62;nan;100640.94;20439140;28;98715;-61
2021/12/23 15:11:03;;;;;;;5.97;3.03;;;;;;;21.61;nan;100641.91;20411329;28;105185;-61
2021/12/23 15:21:10;;;;;;;5.78;2.90;;;;;;;21.63;nan;100602.25;20444665;28;102390;-61
2021/12/23 15:31:16;;;;;;;6.22;2.95;;;;;;;21.65;nan;100587.16;20455120;28;98025;-61
2021/12/23 15:41:17;;;;;;;7.88;2.92;;;;;;;21.68;nan;100564.06;20430865;28;97740;-60
2021/12/23 15:51:22;;;;;;;7.20;2.97;;;;;;;21.69;nan;100541.16;20417604;28;102068;-60
2021/12/23 16:01:24;;;;;;;6.55;2.85;;;;;;;21.67;nan;100522.84;20410387;28;102835;-61
2021/12/23 16:11:26;;;;;;;18.90;3.30;;;;;;;21.75;nan;100517.81;20402289;28;101456;-60
2021/12/23 16:21:27;;;;;;;4.85;2.80;;;;;;;21.74;nan;100496.88;20420398;28;98990;-60
2021/12/23 16:31:29;;;;;;;5.47;2.72;;;;;;;21.74;nan;100481.06;20404686;28;102354;-60
2021/12/23 16:41:31;;;;;;;9.20;2.77;;;;;;;21.74;nan;100486.31;20409138;28;101966;-60
2021/12/23 16:51:31;;;;;;;4.53;2.67;;;;;;;21.74;nan;100478.41;20406390;28;101773;-59
2021/12/23 17:01:32;;;;;;;14.60;3.67;;;;;;;21.63;nan;100455.53;20405633;28;102320;-59
2021/12/23 17:11:32;;;;;;;7.13;2.80;;;;;;;21.69;nan;100467.38;20423967;28;103729;-59
2021/12/23 17:21:49;;;;;;;9.10;2.78;;;;;;;21.76;nan;100439.56;20401593;28;101263;-60
2021/12/23 17:31:50;;;;;;;5.30;2.70;;;;;;;21.79;nan;100406.88;20381667;28;102634;-60
2021/12/23 17:41:50;;;;;;;5.28;2.90;;;;;;;21.77;nan;100399.09;20383592;28;102365;-60
2021/12/23 17:51:51;;;;;;;9.23;2.90;;;;;;;21.89;nan;100386.72;20382819;28;99529;-59
2021/12/23 18:01:54;;;;;;;7.00;5.03;;;;;;;21.95;nan;100365.16;20377188;28;101708;-59
2021/12/23 18:11:55;;;;;;;7.80;5.30;;;;;;;21.96;nan;100353.63;20376459;28;100343;-60
2021/12/23 18:21:58;;;;;;;11.75;8.93;;;;;;;21.97;nan;100354.47;20388513;28;99116;-59
2021/12/23 18:32:01;;;;;;;10.70;9.18;;;;;;;21.97;nan;100336.00;20401652;28;102431;-60
2021/12/23 18:42:08;;;;;;;13.30;9.00;;;;;;;21.90;nan;100340.97;20396699;28;101698;-59
2021/12/23 18:52:09;;;;;;;13.55;8.40;;;;;;;21.89;nan;100332.19;20432940;28;100640;-60
2021/12/23 19:02:27;;;;;;;11.57;8.15;;;;;;;21.94;nan;100338.91;20396036;28;102279;-60
2021/12/23 19:12:28;;;;;;;11.52;8.00;;;;;;;22.01;nan;100308.44;20409693;28;101926;-58
2021/12/23 19:22:29;;;;;;;8.50;7.60;;;;;;;22.07;nan;100307.94;20402668;28;102287;-58
2021/12/23 19:32:30;;;;;;;13.90;8.45;;;;;;;22.04;nan;100287.09;20385004;28;101715;-57
2021/12/23 19:42:30;;;;;;;12.93;7.57;;;;;;;22.03;nan;100273.09;20412872;28;97808;-59
2021/12/23 19:52:32;;;;;;;16.13;8.90;;;;;;;22.04;nan;100264.19;20401193;28;98867;-58
2021/12/23 20:02:34;;;;;;;15.63;8.47;;;;;;;21.96;nan;100271.06;20393573;28;99530;-57
2021/12/23 20:12:37;;;;;;;16.63;8.75;;;;;;;21.80;nan;100248.63;20405047;28;101261;-57
2021/12/23 20:22:44;;;;;;;18.00;9.55;;;;;;;21.61;nan;100227.38;20393823;28;103030;-58
2021/12/23 20:32:47;;;;;;;17.13;9.18;;;;;;;21.48;nan;100209.88;20421435;28;102566;-58
2021/12/23 20:42:49;;;;;;;18.00;8.80;;;;;;;21.35;nan;100167.06;20412508;28;100671;-58
2021/12/23 20:52:49;;;;;;;22.52;9.02;;;;;;;21.26;nan;100147.59;20415160;28;97981;-58
2021/12/23 21:02:50;;;;;;;12.90;8.65;;;;;;;21.16;nan;100131.69;20425747;28;98817;-58
2021/12/23 21:12:54;;;;;;;13.32;8.35;;;;;;;21.08;nan;100108.63;20411690;28;98821;-58
2021/12/23 21:22:56;;;;;;;12.85;8.50;;;;;;;20.99;nan;100095.41;20405373;28;98749;-58
2021/12/23 21:32:58;;;;;;;12.65;7.90;;;;;;;20.91;nan;100077.56;20402587;28;102759;-58
2021/12/23 21:42:58;;;;;;;11.75;7.93;;;;;;;20.84;nan;100052.75;20438645;28;103724;-58
2021/12/23 21:52:59;;;;;;;12.52;8.25;;;;;;;20.78;nan;100038.28;20408100;28;101852;-58
2021/12/23 22:03:00;;;;;;;12.60;7.90;;;;;;;20.71;nan;99992.34;20407178;28;102755;-58
2021/12/23 22:13:00;;;;;;;12.32;8.02;;;;;;;20.66;nan;100047.13;20399312;28;99065;-57
2021/12/23 22:23:04;;;;;;;12.65;8.07;;;;;;;20.62;nan;100047.38;20387416;28;98716;-58
2021/12/23 22:33:05;;;;;;;11.18;7.78;;;;;;;20.56;nan;100042.59;20394008;28;98974;-57
2021/12/23 22:43:13;;;;;;;11.27;8.10;;;;;;;20.50;nan;100014.16;20391025;28;99131;-56
2021/12/23 22:53:14;;;;;;;10.52;7.47;;;;;;;20.45;nan;99982.16;20390579;28;102422;-58
2021/12/23 23:03:17;;;;;;;11.00;7.22;;;;;;;20.40;nan;99927.28;20387368;28;98787;-57
2021/12/23 23:13:19;;;;;;;12.10;8.43;;;;;;;20.36;nan;99870.66;20387242;28;102538;-58
2021/12/23 23:23:22;;;;;;;9.80;7.60;;;;;;;20.31;nan;99884.19;20394694;28;101272;-59
2021/12/23 23:43:42;;;;;;;11.88;8.13;;;;;;;20.23;nan;99868.19;20415098;28;100862;-57
2021/12/23 23:53:47;;;;;;;11.50;8.25;;;;;;;20.21;nan;99892.94;20400548;28;102831;-58
